sensor_id;sensor_type;location;lat;lon;timestamp;P1;durP1;ratioP1;P2;durP2;ratioP2
33357;SDS011;19717;42.614;23.418;2022-08-21T00:00:56;17.13;;;8.25;;
33357;SDS011;19717;42.614;23.418;2022-08-21T00:03:23;20.10;;;8.93;;
33357;SDS011;19717;42.614;23.418;2022-08-21T00:05:49;16.33;;;8.20;;
33357;SDS011;19717;42.614;23.418;2022-08-21T00:08:17;16.10;;;7.82;;
33357;SDS011;19717;42.614;23.418;2022-08-21T00:10:43;16.08;;;7.35;;
33357;SDS011;19717;42.614;23.418;2022-08-21T00:13:09;17.30;;;7.47;;
33357;SDS011;19717;42.614;23.418;2022-08-21T00:15:36;15.18;;;7.60;;
33357;SDS011;19717;42.614;23.418;2022-08-21T00:18:03;13.38;;;6.93;;
33357;SDS011;19717;42.614;23.418;2022-08-21T00:20:32;15.68;;;7.32;;
33357;SDS011;19717;42.614;23.418;2022-08-21T00:22:58;16.38;;;7.05;;
33357;SDS011;19717;42.614;23.418;2022-08-21T00:25:24;12.80;;;7.10;;
33357;SDS011;19717;42.614;23.418;2022-08-21T00:27:50;13.48;;;7.05;;
33357;SDS011;19717;42.614;23.418;2022-08-21T00:30:17;10.35;;;6.72;;
33357;SDS011;19717;42.614;23.418;2022-08-21T00:32:43;16.92;;;7.70;;
33357;SDS011;19717;42.614;23.418;2022-08-21T00:35:11;18.63;;;7.53;;
33357;SDS011;19717;42.614;23.418;2022-08-21T00:37:39;13.20;;;7.32;;
33357;SDS011;19717;42.614;23.418;2022-08-21T00:40:06;13.38;;;7.32;;
33357;SDS011;19717;42.614;23.418;2022-08-21T00:42:33;15.20;;;7.68;;
33357;SDS011;19717;42.614;23.418;2022-08-21T00:44:59;13.60;;;6.82;;
33357;SDS011;19717;42.614;23.418;2022-08-21T00:47:25;13.95;;;6.90;;
33357;SDS011;19717;42.614;23.418;2022-08-21T00:49:51;15.40;;;7.55;;
33357;SDS011;19717;42.614;23.418;2022-08-21T00:52:19;15.55;;;7.45;;
33357;SDS011;19717;42.614;23.418;2022-08-21T00:54:46;13.18;;;7.53;;
33357;SDS011;19717;42.614;23.418;2022-08-21T00:57:15;17.65;;;7.97;;
33357;SDS011;19717;42.614;23.418;2022-08-21T00:59:41;14.27;;;6.63;;
33357;SDS011;19717;42.614;23.418;2022-08-21T01:02:09;13.15;;;7.20;;
33357;SDS011;19717;42.614;23.418;2022-08-21T01:04:35;11.13;;;6.70;;
33357;SDS011;19717;42.614;23.418;2022-08-21T01:07:02;18.15;;;7.55;;
33357;SDS011;19717;42.614;23.418;2022-08-21T01:09:28;11.98;;;7.13;;
33357;SDS011;19717;42.614;23.418;2022-08-21T01:11:54;13.95;;;7.28;;
33357;SDS011;19717;42.614;23.418;2022-08-21T01:14:21;12.05;;;7.13;;
33357;SDS011;19717;42.614;23.418;2022-08-21T01:16:48;12.15;;;7.57;;
33357;SDS011;19717;42.614;23.418;2022-08-21T01:19:15;12.10;;;7.40;;
33357;SDS011;19717;42.614;23.418;2022-08-21T01:21:42;14.07;;;7.43;;
33357;SDS011;19717;42.614;23.418;2022-08-21T01:24:08;14.10;;;7.40;;
33357;SDS011;19717;42.614;23.418;2022-08-21T01:26:35;14.55;;;7.95;;
33357;SDS011;19717;42.614;23.418;2022-08-21T01:29:05;17.02;;;7.85;;
33357;SDS011;19717;42.614;23.418;2022-08-21T01:31:33;16.30;;;8.13;;
33357;SDS011;19717;42.614;23.418;2022-08-21T01:33:59;17.92;;;8.63;;
33357;SDS011;19717;42.614;23.418;2022-08-21T01:36:25;17.30;;;8.93;;
33357;SDS011;19717;42.614;23.418;2022-08-21T01:38:51;21.05;;;9.45;;
33357;SDS011;19717;42.614;23.418;2022-08-21T01:41:17;18.60;;;9.15;;
33357;SDS011;19717;42.614;23.418;2022-08-21T01:43:44;22.77;;;9.68;;
33357;SDS011;19717;42.614;23.418;2022-08-21T01:46:10;19.33;;;8.55;;
33357;SDS011;19717;42.614;23.418;2022-08-21T01:48:37;21.15;;;9.60;;
33357;SDS011;19717;42.614;23.418;2022-08-21T01:51:03;20.27;;;9.13;;
33357;SDS011;19717;42.614;23.418;2022-08-21T01:53:29;20.33;;;9.00;;
33357;SDS011;19717;42.614;23.418;2022-08-21T01:55:55;16.38;;;8.45;;
33357;SDS011;19717;42.614;23.418;2022-08-21T01:58:22;17.88;;;9.38;;
33357;SDS011;19717;42.614;23.418;2022-08-21T02:00:48;18.88;;;8.70;;
33357;SDS011;19717;42.614;23.418;2022-08-21T02:03:14;16.92;;;8.45;;
33357;SDS011;19717;42.614;23.418;2022-08-21T02:05:40;17.63;;;8.63;;
33357;SDS011;19717;42.614;23.418;2022-08-21T02:08:06;17.58;;;7.72;;
33357;SDS011;19717;42.614;23.418;2022-08-21T02:10:32;16.00;;;8.15;;
33357;SDS011;19717;42.614;23.418;2022-08-21T02:12:59;13.63;;;8.38;;
33357;SDS011;19717;42.614;23.418;2022-08-21T02:15:25;19.08;;;8.05;;
33357;SDS011;19717;42.614;23.418;2022-08-21T02:17:53;17.00;;;8.30;;
33357;SDS011;19717;42.614;23.418;2022-08-21T02:20:24;16.80;;;7.88;;
33357;SDS011;19717;42.614;23.418;2022-08-21T02:22:52;13.63;;;7.43;;
33357;SDS011;19717;42.614;23.418;2022-08-21T02:25:22;14.23;;;6.82;;
33357;SDS011;19717;42.614;23.418;2022-08-21T02:27:52;13.57;;;6.63;;
33357;SDS011;19717;42.614;23.418;2022-08-21T02:30:26;15.02;;;7.53;;
33357;SDS011;19717;42.614;23.418;2022-08-21T02:32:52;15.30;;;7.47;;
33357;SDS011;19717;42.614;23.418;2022-08-21T02:35:18;15.57;;;7.75;;
33357;SDS011;19717;42.614;23.418;2022-08-21T02:40:15;13.40;;;7.15;;
33357;SDS011;19717;42.614;23.418;2022-08-21T02:42:41;17.27;;;7.65;;
33357;SDS011;19717;42.614;23.418;2022-08-21T02:45:08;16.27;;;7.30;;
33357;SDS011;19717;42.614;23.418;2022-08-21T02:47:35;16.00;;;6.30;;
33357;SDS011;19717;42.614;23.418;2022-08-21T02:50:01;13.20;;;5.30;;
33357;SDS011;19717;42.614;23.418;2022-08-21T02:52:27;12.68;;;5.80;;
33357;SDS011;19717;42.614;23.418;2022-08-21T02:54:53;10.68;;;4.93;;
33357;SDS011;19717;42.614;23.418;2022-08-21T02:57:19;11.15;;;5.18;;
33357;SDS011;19717;42.614;23.418;2022-08-21T02:59:45;9.68;;;4.80;;
33357;SDS011;19717;42.614;23.418;2022-08-21T03:02:11;12.13;;;5.78;;
33357;SDS011;19717;42.614;23.418;2022-08-21T03:04:38;12.07;;;5.20;;
33357;SDS011;19717;42.614;23.418;2022-08-21T03:07:04;14.63;;;5.40;;
33357;SDS011;19717;42.614;23.418;2022-08-21T03:09:30;11.93;;;5.07;;
33357;SDS011;19717;42.614;23.418;2022-08-21T03:11:56;12.50;;;4.75;;
33357;SDS011;19717;42.614;23.418;2022-08-21T03:14:22;11.10;;;5.30;;
33357;SDS011;19717;42.614;23.418;2022-08-21T03:16:51;16.48;;;5.00;;
33357;SDS011;19717;42.614;23.418;2022-08-21T03:19:17;10.75;;;4.38;;
33357;SDS011;19717;42.614;23.418;2022-08-21T03:21:43;9.68;;;4.82;;
33357;SDS011;19717;42.614;23.418;2022-08-21T03:24:09;9.15;;;4.55;;
33357;SDS011;19717;42.614;23.418;2022-08-21T03:26:35;16.45;;;4.78;;
33357;SDS011;19717;42.614;23.418;2022-08-21T03:29:01;12.27;;;4.88;;
33357;SDS011;19717;42.614;23.418;2022-08-21T03:31:27;8.63;;;4.68;;
33357;SDS011;19717;42.614;23.418;2022-08-21T03:33:56;11.93;;;5.20;;
33357;SDS011;19717;42.614;23.418;2022-08-21T03:36:22;10.27;;;5.15;;
33357;SDS011;19717;42.614;23.418;2022-08-21T03:38:48;11.25;;;5.47;;
33357;SDS011;19717;42.614;23.418;2022-08-21T03:41:15;15.88;;;5.97;;
33357;SDS011;19717;42.614;23.418;2022-08-21T03:43:41;14.20;;;6.50;;
33357;SDS011;19717;42.614;23.418;2022-08-21T03:46:07;15.20;;;7.53;;
33357;SDS011;19717;42.614;23.418;2022-08-21T03:48:34;13.45;;;7.78;;
33357;SDS011;19717;42.614;23.418;2022-08-21T03:51:00;12.98;;;5.95;;
33357;SDS011;19717;42.614;23.418;2022-08-21T03:53:27;8.20;;;5.47;;
33357;SDS011;19717;42.614;23.418;2022-08-21T03:55:55;11.93;;;5.47;;
33357;SDS011;19717;42.614;23.418;2022-08-21T03:58:23;15.02;;;5.40;;
33357;SDS011;19717;42.614;23.418;2022-08-21T04:00:50;10.05;;;4.80;;
33357;SDS011;19717;42.614;23.418;2022-08-21T04:03:17;11.93;;;4.60;;
33357;SDS011;19717;42.614;23.418;2022-08-21T04:05:46;11.32;;;4.80;;
33357;SDS011;19717;42.614;23.418;2022-08-21T04:08:12;8.95;;;5.18;;
33357;SDS011;19717;42.614;23.418;2022-08-21T04:10:39;8.95;;;4.70;;
33357;SDS011;19717;42.614;23.418;2022-08-21T04:13:06;11.30;;;5.03;;
33357;SDS011;19717;42.614;23.418;2022-08-21T04:15:32;9.35;;;5.43;;
33357;SDS011;19717;42.614;23.418;2022-08-21T04:17:59;10.57;;;5.70;;
33357;SDS011;19717;42.614;23.418;2022-08-21T04:20:25;15.63;;;5.00;;
33357;SDS011;19717;42.614;23.418;2022-08-21T04:22:51;11.20;;;4.85;;
33357;SDS011;19717;42.614;23.418;2022-08-21T04:25:18;8.55;;;4.90;;
33357;SDS011;19717;42.614;23.418;2022-08-21T04:27:44;14.10;;;5.50;;
33357;SDS011;19717;42.614;23.418;2022-08-21T04:30:11;14.43;;;5.50;;
33357;SDS011;19717;42.614;23.418;2022-08-21T04:32:38;12.30;;;5.25;;
33357;SDS011;19717;42.614;23.418;2022-08-21T04:35:06;11.40;;;5.90;;
33357;SDS011;19717;42.614;23.418;2022-08-21T04:37:33;10.98;;;6.18;;
33357;SDS011;19717;42.614;23.418;2022-08-21T04:39:59;11.43;;;6.35;;
33357;SDS011;19717;42.614;23.418;2022-08-21T04:42:25;13.02;;;6.35;;
33357;SDS011;19717;42.614;23.418;2022-08-21T04:44:52;16.27;;;6.85;;
33357;SDS011;19717;42.614;23.418;2022-08-21T04:47:18;11.93;;;5.80;;
33357;SDS011;19717;42.614;23.418;2022-08-21T04:49:45;10.77;;;6.20;;
33357;SDS011;19717;42.614;23.418;2022-08-21T04:52:11;10.10;;;6.25;;
33357;SDS011;19717;42.614;23.418;2022-08-21T04:54:38;13.60;;;5.80;;
33357;SDS011;19717;42.614;23.418;2022-08-21T04:57:06;10.25;;;5.57;;
33357;SDS011;19717;42.614;23.418;2022-08-21T04:59:38;13.93;;;5.80;;
33357;SDS011;19717;42.614;23.418;2022-08-21T05:02:05;16.67;;;6.28;;
33357;SDS011;19717;42.614;23.418;2022-08-21T05:04:33;15.75;;;5.60;;
33357;SDS011;19717;42.614;23.418;2022-08-21T05:07:02;11.75;;;5.47;;
33357;SDS011;19717;42.614;23.418;2022-08-21T05:09:30;14.48;;;5.22;;
33357;SDS011;19717;42.614;23.418;2022-08-21T05:11:57;9.02;;;5.13;;
33357;SDS011;19717;42.614;23.418;2022-08-21T05:14:23;10.48;;;5.78;;
33357;SDS011;19717;42.614;23.418;2022-08-21T05:16:52;11.98;;;5.90;;
33357;SDS011;19717;42.614;23.418;2022-08-21T05:19:18;11.07;;;5.35;;
33357;SDS011;19717;42.614;23.418;2022-08-21T05:21:45;13.15;;;5.65;;
33357;SDS011;19717;42.614;23.418;2022-08-21T05:24:12;8.65;;;4.85;;
33357;SDS011;19717;42.614;23.418;2022-08-21T05:26:38;10.82;;;5.38;;
33357;SDS011;19717;42.614;23.418;2022-08-21T05:29:04;12.23;;;5.40;;
33357;SDS011;19717;42.614;23.418;2022-08-21T05:31:30;13.23;;;5.93;;
33357;SDS011;19717;42.614;23.418;2022-08-21T05:33:57;21.95;;;7.20;;
33357;SDS011;19717;42.614;23.418;2022-08-21T05:36:23;14.02;;;6.22;;
33357;SDS011;19717;42.614;23.418;2022-08-21T05:38:49;12.73;;;6.10;;
33357;SDS011;19717;42.614;23.418;2022-08-21T05:41:15;16.95;;;6.30;;
33357;SDS011;19717;42.614;23.418;2022-08-21T05:43:41;68.45;;;10.77;;
33357;SDS011;19717;42.614;23.418;2022-08-21T05:46:08;25.10;;;8.10;;
33357;SDS011;19717;42.614;23.418;2022-08-21T05:48:34;16.02;;;6.38;;
33357;SDS011;19717;42.614;23.418;2022-08-21T05:51:05;14.18;;;6.00;;
33357;SDS011;19717;42.614;23.418;2022-08-21T05:53:31;10.98;;;7.75;;
33357;SDS011;19717;42.614;23.418;2022-08-21T05:55:57;14.65;;;7.03;;
33357;SDS011;19717;42.614;23.418;2022-08-21T05:58:23;15.30;;;6.72;;
33357;SDS011;19717;42.614;23.418;2022-08-21T06:00:50;15.85;;;6.30;;
33357;SDS011;19717;42.614;23.418;2022-08-21T06:03:21;14.80;;;6.72;;
33357;SDS011;19717;42.614;23.418;2022-08-21T06:05:47;12.90;;;6.47;;
33357;SDS011;19717;42.614;23.418;2022-08-21T06:08:14;9.98;;;5.40;;
33357;SDS011;19717;42.614;23.418;2022-08-21T06:10:41;11.07;;;6.40;;
33357;SDS011;19717;42.614;23.418;2022-08-21T06:13:07;10.55;;;6.47;;
33357;SDS011;19717;42.614;23.418;2022-08-21T06:15:33;13.68;;;8.02;;
33357;SDS011;19717;42.614;23.418;2022-08-21T06:17:59;28.08;;;8.57;;
33357;SDS011;19717;42.614;23.418;2022-08-21T06:20:25;48.33;;;10.13;;
33357;SDS011;19717;42.614;23.418;2022-08-21T06:22:51;23.20;;;8.00;;
33357;SDS011;19717;42.614;23.418;2022-08-21T06:25:17;18.63;;;7.85;;
33357;SDS011;19717;42.614;23.418;2022-08-21T06:27:44;14.52;;;7.13;;
33357;SDS011;19717;42.614;23.418;2022-08-21T06:30:10;13.27;;;7.70;;
33357;SDS011;19717;42.614;23.418;2022-08-21T06:32:36;15.60;;;7.32;;
33357;SDS011;19717;42.614;23.418;2022-08-21T06:35:03;12.18;;;7.13;;
33357;SDS011;19717;42.614;23.418;2022-08-21T06:37:29;14.57;;;7.70;;
33357;SDS011;19717;42.614;23.418;2022-08-21T06:39:58;16.60;;;6.93;;
33357;SDS011;19717;42.614;23.418;2022-08-21T06:42:24;11.98;;;6.45;;
33357;SDS011;19717;42.614;23.418;2022-08-21T06:44:52;10.80;;;6.25;;
33357;SDS011;19717;42.614;23.418;2022-08-21T06:47:18;15.50;;;5.85;;
33357;SDS011;19717;42.614;23.418;2022-08-21T06:49:44;13.70;;;6.25;;
33357;SDS011;19717;42.614;23.418;2022-08-21T06:52:11;11.85;;;5.60;;
33357;SDS011;19717;42.614;23.418;2022-08-21T06:54:38;13.70;;;6.25;;
33357;SDS011;19717;42.614;23.418;2022-08-21T06:57:04;9.68;;;6.35;;
33357;SDS011;19717;42.614;23.418;2022-08-21T06:59:31;13.10;;;7.10;;
33357;SDS011;19717;42.614;23.418;2022-08-21T07:01:58;18.75;;;6.40;;
33357;SDS011;19717;42.614;23.418;2022-08-21T07:04:24;14.25;;;6.57;;
33357;SDS011;19717;42.614;23.418;2022-08-21T07:06:50;9.45;;;6.30;;
33357;SDS011;19717;42.614;23.418;2022-08-21T07:09:16;9.85;;;6.13;;
33357;SDS011;19717;42.614;23.418;2022-08-21T07:11:43;9.55;;;5.57;;
33357;SDS011;19717;42.614;23.418;2022-08-21T07:14:10;10.73;;;4.63;;
33357;SDS011;19717;42.614;23.418;2022-08-21T07:16:36;10.35;;;5.30;;
33357;SDS011;19717;42.614;23.418;2022-08-21T07:19:02;9.05;;;5.18;;
33357;SDS011;19717;42.614;23.418;2022-08-21T07:21:28;13.13;;;4.90;;
33357;SDS011;19717;42.614;23.418;2022-08-21T07:23:54;10.88;;;5.20;;
33357;SDS011;19717;42.614;23.418;2022-08-21T07:26:22;9.88;;;4.63;;
33357;SDS011;19717;42.614;23.418;2022-08-21T07:28:48;9.68;;;4.85;;
33357;SDS011;19717;42.614;23.418;2022-08-21T07:31:15;10.07;;;4.97;;
33357;SDS011;19717;42.614;23.418;2022-08-21T07:33:42;11.13;;;4.70;;
33357;SDS011;19717;42.614;23.418;2022-08-21T07:36:08;11.02;;;4.72;;
33357;SDS011;19717;42.614;23.418;2022-08-21T07:38:35;11.30;;;5.00;;
33357;SDS011;19717;42.614;23.418;2022-08-21T07:41:02;13.80;;;4.85;;
33357;SDS011;19717;42.614;23.418;2022-08-21T07:43:33;11.10;;;4.78;;
33357;SDS011;19717;42.614;23.418;2022-08-21T07:45:59;10.30;;;4.13;;
33357;SDS011;19717;42.614;23.418;2022-08-21T07:48:26;9.35;;;3.92;;
33357;SDS011;19717;42.614;23.418;2022-08-21T07:50:52;15.13;;;3.95;;
33357;SDS011;19717;42.614;23.418;2022-08-21T07:53:20;9.82;;;3.35;;
33357;SDS011;19717;42.614;23.418;2022-08-21T07:55:46;8.77;;;3.03;;
33357;SDS011;19717;42.614;23.418;2022-08-21T07:58:12;11.23;;;3.85;;
33357;SDS011;19717;42.614;23.418;2022-08-21T08:00:39;11.75;;;4.40;;
33357;SDS011;19717;42.614;23.418;2022-08-21T08:03:06;11.50;;;3.53;;
33357;SDS011;19717;42.614;23.418;2022-08-21T08:05:32;12.30;;;3.47;;
33357;SDS011;19717;42.614;23.418;2022-08-21T08:08:02;10.35;;;3.97;;
33357;SDS011;19717;42.614;23.418;2022-08-21T08:10:28;10.65;;;3.97;;
33357;SDS011;19717;42.614;23.418;2022-08-21T08:12:54;11.02;;;4.60;;
33357;SDS011;19717;42.614;23.418;2022-08-21T08:15:22;12.00;;;5.38;;
33357;SDS011;19717;42.614;23.418;2022-08-21T08:17:48;9.20;;;5.18;;
33357;SDS011;19717;42.614;23.418;2022-08-21T08:20:15;12.45;;;4.80;;
33357;SDS011;19717;42.614;23.418;2022-08-21T08:22:43;8.65;;;4.45;;
33357;SDS011;19717;42.614;23.418;2022-08-21T08:25:10;11.20;;;5.22;;
33357;SDS011;19717;42.614;23.418;2022-08-21T08:27:37;12.70;;;6.18;;
33357;SDS011;19717;42.614;23.418;2022-08-21T08:30:04;10.48;;;5.65;;
33357;SDS011;19717;42.614;23.418;2022-08-21T08:32:33;10.07;;;6.03;;
33357;SDS011;19717;42.614;23.418;2022-08-21T08:35:03;10.20;;;5.80;;
33357;SDS011;19717;42.614;23.418;2022-08-21T08:37:29;11.93;;;6.03;;
33357;SDS011;19717;42.614;23.418;2022-08-21T08:39:56;11.05;;;5.82;;
33357;SDS011;19717;42.614;23.418;2022-08-21T08:42:27;9.88;;;5.32;;
33357;SDS011;19717;42.614;23.418;2022-08-21T08:44:58;15.20;;;5.60;;
33357;SDS011;19717;42.614;23.418;2022-08-21T08:47:26;10.52;;;5.32;;
33357;SDS011;19717;42.614;23.418;2022-08-21T08:49:55;11.75;;;5.50;;
33357;SDS011;19717;42.614;23.418;2022-08-21T08:52:27;9.68;;;5.68;;
33357;SDS011;19717;42.614;23.418;2022-08-21T08:55:04;28.50;;;7.78;;
33357;SDS011;19717;42.614;23.418;2022-08-21T08:57:32;9.40;;;5.32;;
33357;SDS011;19717;42.614;23.418;2022-08-21T08:59:59;16.40;;;5.60;;
33357;SDS011;19717;42.614;23.418;2022-08-21T09:02:26;11.98;;;5.25;;
33357;SDS011;19717;42.614;23.418;2022-08-21T09:04:52;10.93;;;4.95;;
33357;SDS011;19717;42.614;23.418;2022-08-21T09:17:29;16.95;;;5.65;;
33357;SDS011;19717;42.614;23.418;2022-08-21T09:25:12;10.05;;;5.22;;
33357;SDS011;19717;42.614;23.418;2022-08-21T09:27:40;12.73;;;6.13;;
33357;SDS011;19717;42.614;23.418;2022-08-21T09:30:07;13.10;;;5.57;;
33357;SDS011;19717;42.614;23.418;2022-08-21T09:32:35;12.02;;;5.82;;
33357;SDS011;19717;42.614;23.418;2022-08-21T09:37:32;13.90;;;5.43;;
33357;SDS011;19717;42.614;23.418;2022-08-21T09:39:59;15.45;;;5.68;;
33357;SDS011;19717;42.614;23.418;2022-08-21T09:42:27;11.75;;;5.55;;
33357;SDS011;19717;42.614;23.418;2022-08-21T09:45:09;8.40;;;5.57;;
33357;SDS011;19717;42.614;23.418;2022-08-21T09:47:36;9.70;;;5.45;;
33357;SDS011;19717;42.614;23.418;2022-08-21T09:50:10;12.15;;;5.53;;
33357;SDS011;19717;42.614;23.418;2022-08-21T09:52:41;13.65;;;5.40;;
33357;SDS011;19717;42.614;23.418;2022-08-21T09:55:08;10.25;;;6.10;;
33357;SDS011;19717;42.614;23.418;2022-08-21T09:58:00;7.72;;;4.93;;
33357;SDS011;19717;42.614;23.418;2022-08-21T10:00:31;10.90;;;6.00;;
33357;SDS011;19717;42.614;23.418;2022-08-21T10:03:07;10.55;;;5.00;;
33357;SDS011;19717;42.614;23.418;2022-08-21T10:05:34;14.40;;;4.78;;
33357;SDS011;19717;42.614;23.418;2022-08-21T10:08:00;9.52;;;5.13;;
33357;SDS011;19717;42.614;23.418;2022-08-21T10:10:29;14.02;;;5.00;;
33357;SDS011;19717;42.614;23.418;2022-08-21T10:18:09;8.93;;;4.57;;
33357;SDS011;19717;42.614;23.418;2022-08-21T10:20:50;10.40;;;4.90;;
33357;SDS011;19717;42.614;23.418;2022-08-21T10:26:20;8.25;;;4.75;;
33357;SDS011;19717;42.614;23.418;2022-08-21T10:29:07;9.35;;;4.90;;
33357;SDS011;19717;42.614;23.418;2022-08-21T10:39:35;11.93;;;4.97;;
33357;SDS011;19717;42.614;23.418;2022-08-21T10:45:09;9.05;;;4.75;;
33357;SDS011;19717;42.614;23.418;2022-08-21T10:52:49;9.85;;;4.55;;
33357;SDS011;19717;42.614;23.418;2022-08-21T10:55:18;9.02;;;4.40;;
33357;SDS011;19717;42.614;23.418;2022-08-21T11:00:12;8.65;;;4.72;;
33357;SDS011;19717;42.614;23.418;2022-08-21T11:02:43;8.35;;;4.40;;
33357;SDS011;19717;42.614;23.418;2022-08-21T11:07:45;8.35;;;4.43;;
33357;SDS011;19717;42.614;23.418;2022-08-21T11:12:55;8.52;;;3.92;;
33357;SDS011;19717;42.614;23.418;2022-08-21T11:18:14;9.07;;;4.53;;
33357;SDS011;19717;42.614;23.418;2022-08-21T11:23:18;6.90;;;4.78;;
33357;SDS011;19717;42.614;23.418;2022-08-21T11:25:49;10.45;;;4.13;;
33357;SDS011;19717;42.614;23.418;2022-08-21T11:28:24;8.98;;;4.20;;
33357;SDS011;19717;42.614;23.418;2022-08-21T11:30:57;7.13;;;4.72;;
33357;SDS011;19717;42.614;23.418;2022-08-21T11:35:52;11.98;;;4.38;;
33357;SDS011;19717;42.614;23.418;2022-08-21T11:38:41;6.85;;;4.00;;
33357;SDS011;19717;42.614;23.418;2022-08-21T11:43:42;6.93;;;4.40;;
33357;SDS011;19717;42.614;23.418;2022-08-21T11:46:14;9.40;;;5.10;;
33357;SDS011;19717;42.614;23.418;2022-08-21T11:51:49;8.93;;;5.05;;
33357;SDS011;19717;42.614;23.418;2022-08-21T11:57:01;8.35;;;4.45;;
33357;SDS011;19717;42.614;23.418;2022-08-21T11:59:39;7.22;;;4.70;;
33357;SDS011;19717;42.614;23.418;2022-08-21T12:02:09;9.75;;;4.25;;
33357;SDS011;19717;42.614;23.418;2022-08-21T12:04:42;9.43;;;5.28;;
33357;SDS011;19717;42.614;23.418;2022-08-21T12:07:10;8.82;;;5.25;;
33357;SDS011;19717;42.614;23.418;2022-08-21T12:09:38;9.55;;;5.30;;
33357;SDS011;19717;42.614;23.418;2022-08-21T12:12:23;10.23;;;5.10;;
33357;SDS011;19717;42.614;23.418;2022-08-21T12:14:50;11.10;;;5.05;;
33357;SDS011;19717;42.614;23.418;2022-08-21T12:17:18;8.68;;;5.38;;
33357;SDS011;19717;42.614;23.418;2022-08-21T12:19:45;10.48;;;5.00;;
33357;SDS011;19717;42.614;23.418;2022-08-21T12:22:12;7.63;;;4.95;;
33357;SDS011;19717;42.614;23.418;2022-08-21T12:24:43;10.35;;;5.05;;
33357;SDS011;19717;42.614;23.418;2022-08-21T12:29:50;10.48;;;4.60;;
33357;SDS011;19717;42.614;23.418;2022-08-21T12:37:20;8.73;;;4.88;;
33357;SDS011;19717;42.614;23.418;2022-08-21T12:39:49;9.48;;;4.85;;
33357;SDS011;19717;42.614;23.418;2022-08-21T12:42:31;9.73;;;4.65;;
33357;SDS011;19717;42.614;23.418;2022-08-21T12:45:04;13.32;;;4.72;;
33357;SDS011;19717;42.614;23.418;2022-08-21T12:48:06;6.45;;;4.97;;
33357;SDS011;19717;42.614;23.418;2022-08-21T12:50:35;8.50;;;5.13;;
33357;SDS011;19717;42.614;23.418;2022-08-21T12:53:06;10.88;;;5.40;;
33357;SDS011;19717;42.614;23.418;2022-08-21T12:55:33;10.40;;;5.25;;
33357;SDS011;19717;42.614;23.418;2022-08-21T12:58:00;10.82;;;5.10;;
33357;SDS011;19717;42.614;23.418;2022-08-21T13:00:28;11.90;;;5.55;;
33357;SDS011;19717;42.614;23.418;2022-08-21T13:02:54;8.18;;;4.70;;
33357;SDS011;19717;42.614;23.418;2022-08-21T13:05:27;9.02;;;5.38;;
33357;SDS011;19717;42.614;23.418;2022-08-21T13:07:54;8.80;;;5.03;;
33357;SDS011;19717;42.614;23.418;2022-08-21T13:10:25;10.98;;;5.15;;
33357;SDS011;19717;42.614;23.418;2022-08-21T13:12:55;11.27;;;5.18;;
33357;SDS011;19717;42.614;23.418;2022-08-21T13:15:30;9.05;;;5.07;;
33357;SDS011;19717;42.614;23.418;2022-08-21T13:17:56;9.57;;;5.20;;
33357;SDS011;19717;42.614;23.418;2022-08-21T13:20:31;11.48;;;5.45;;
33357;SDS011;19717;42.614;23.418;2022-08-21T13:22:59;17.70;;;6.00;;
33357;SDS011;19717;42.614;23.418;2022-08-21T13:25:28;9.75;;;5.75;;
33357;SDS011;19717;42.614;23.418;2022-08-21T13:28:04;10.85;;;5.55;;
33357;SDS011;19717;42.614;23.418;2022-08-21T13:30:30;13.20;;;6.13;;
33357;SDS011;19717;42.614;23.418;2022-08-21T13:32:58;12.18;;;5.40;;
33357;SDS011;19717;42.614;23.418;2022-08-21T13:35:26;8.40;;;5.53;;
33357;SDS011;19717;42.614;23.418;2022-08-21T13:37:53;8.02;;;5.30;;
33357;SDS011;19717;42.614;23.418;2022-08-21T13:40:24;8.05;;;5.55;;
33357;SDS011;19717;42.614;23.418;2022-08-21T13:42:50;9.82;;;5.70;;
33357;SDS011;19717;42.614;23.418;2022-08-21T13:45:25;10.10;;;5.72;;
33357;SDS011;19717;42.614;23.418;2022-08-21T13:47:51;9.52;;;5.70;;
33357;SDS011;19717;42.614;23.418;2022-08-21T13:50:19;8.93;;;5.22;;
33357;SDS011;19717;42.614;23.418;2022-08-21T13:53:05;9.98;;;5.68;;
33357;SDS011;19717;42.614;23.418;2022-08-21T13:55:49;12.13;;;6.25;;
33357;SDS011;19717;42.614;23.418;2022-08-21T13:58:24;13.32;;;5.97;;
33357;SDS011;19717;42.614;23.418;2022-08-21T14:00:50;9.85;;;6.72;;
33357;SDS011;19717;42.614;23.418;2022-08-21T14:03:26;12.75;;;5.80;;
33357;SDS011;19717;42.614;23.418;2022-08-21T14:05:52;11.50;;;6.07;;
33357;SDS011;19717;42.614;23.418;2022-08-21T14:10:54;10.77;;;6.00;;
33357;SDS011;19717;42.614;23.418;2022-08-21T14:16:00;11.35;;;6.22;;
33357;SDS011;19717;42.614;23.418;2022-08-21T14:18:26;13.55;;;5.97;;
33357;SDS011;19717;42.614;23.418;2022-08-21T14:21:14;8.13;;;5.82;;
33357;SDS011;19717;42.614;23.418;2022-08-21T14:23:39;12.52;;;5.43;;
33357;SDS011;19717;42.614;23.418;2022-08-21T14:26:06;11.57;;;5.75;;
33357;SDS011;19717;42.614;23.418;2022-08-21T14:28:34;17.13;;;6.85;;
33357;SDS011;19717;42.614;23.418;2022-08-21T14:31:13;14.35;;;7.78;;
33357;SDS011;19717;42.614;23.418;2022-08-21T14:33:40;11.85;;;6.10;;
33357;SDS011;19717;42.614;23.418;2022-08-21T14:36:06;18.15;;;9.25;;
33357;SDS011;19717;42.614;23.418;2022-08-21T14:38:34;13.93;;;6.97;;
33357;SDS011;19717;42.614;23.418;2022-08-21T14:41:04;12.20;;;7.10;;
33357;SDS011;19717;42.614;23.418;2022-08-21T14:43:31;13.50;;;6.55;;
33357;SDS011;19717;42.614;23.418;2022-08-21T14:45:57;12.93;;;6.90;;
33357;SDS011;19717;42.614;23.418;2022-08-21T14:48:24;14.95;;;7.30;;
33357;SDS011;19717;42.614;23.418;2022-08-21T14:50:50;12.45;;;5.82;;
33357;SDS011;19717;42.614;23.418;2022-08-21T14:53:16;9.15;;;5.60;;
33357;SDS011;19717;42.614;23.418;2022-08-21T14:55:42;11.15;;;5.40;;
33357;SDS011;19717;42.614;23.418;2022-08-21T14:58:27;10.48;;;5.53;;
33357;SDS011;19717;42.614;23.418;2022-08-21T15:00:56;11.75;;;5.57;;
33357;SDS011;19717;42.614;23.418;2022-08-21T15:03:23;11.80;;;5.75;;
33357;SDS011;19717;42.614;23.418;2022-08-21T15:05:49;9.27;;;5.10;;
33357;SDS011;19717;42.614;23.418;2022-08-21T15:08:15;12.13;;;5.35;;
33357;SDS011;19717;42.614;23.418;2022-08-21T15:10:42;12.93;;;5.40;;
33357;SDS011;19717;42.614;23.418;2022-08-21T15:13:08;7.65;;;5.00;;
33357;SDS011;19717;42.614;23.418;2022-08-21T15:15:36;15.65;;;6.07;;
33357;SDS011;19717;42.614;23.418;2022-08-21T15:18:04;13.75;;;5.93;;
33357;SDS011;19717;42.614;23.418;2022-08-21T15:20:30;13.90;;;6.80;;
33357;SDS011;19717;42.614;23.418;2022-08-21T15:22:56;12.38;;;6.50;;
33357;SDS011;19717;42.614;23.418;2022-08-21T15:25:22;11.88;;;6.55;;
33357;SDS011;19717;42.614;23.418;2022-08-21T15:27:48;10.30;;;6.00;;
33357;SDS011;19717;42.614;23.418;2022-08-21T15:30:14;10.05;;;6.65;;
33357;SDS011;19717;42.614;23.418;2022-08-21T15:32:40;9.90;;;6.57;;
33357;SDS011;19717;42.614;23.418;2022-08-21T15:35:07;16.48;;;6.47;;
33357;SDS011;19717;42.614;23.418;2022-08-21T15:37:33;13.43;;;6.22;;
33357;SDS011;19717;42.614;23.418;2022-08-21T15:39:59;12.10;;;5.22;;
33357;SDS011;19717;42.614;23.418;2022-08-21T15:42:25;9.63;;;5.80;;
33357;SDS011;19717;42.614;23.418;2022-08-21T15:44:51;9.68;;;6.10;;
33357;SDS011;19717;42.614;23.418;2022-08-21T15:47:19;8.60;;;5.95;;
33357;SDS011;19717;42.614;23.418;2022-08-21T15:49:46;8.63;;;5.60;;